This is the latest recevied weather packets stored in our database for station/object DL0GY-13. If no packets are shown the sender has not sent any weather packets the latest 10 day(s).
| Time | Temp. | Humidity | Pressure | Rain* | Wind** | Luminosity | Snow |
|---|---|---|---|---|---|---|---|
| 1777804833 | 26.11° C | 34% | 1009.5 hPa | 0 mm | - | - | - |
| 1777803632 | 28.33° C | 31% | 1009.9 hPa | 0 mm | - | - | - |
| 1777803032 | 27.78° C | 33% | 1009.9 hPa | 0 mm | - | - | - |
| 1777800633 | 27.22° C | 35% | 1010.2 hPa | 0 mm | - | - | - |
| 1777800032 | 27.78° C | 36% | 1010 hPa | 0 mm | - | - | - |
| 1777799433 | 27.78° C | 37% | 1010.1 hPa | 0 mm | - | - | - |
| 1777798832 | 27.22° C | 37% | 1010.2 hPa | 0 mm | - | - | - |
| 1777798232 | 26.67° C | 38% | 1010.4 hPa | 0 mm | - | - | - |
| 1777797633 | 28.33° C | 36% | 1010.3 hPa | 0 mm | - | - | - |
| 1777797033 | 28.89° C | 38% | 1010.3 hPa | 0 mm | - | - | - |
| 1777796432 | 28.33° C | 38% | 1010.3 hPa | 0 mm | - | - | - |
| 1777795832 | 28.89° C | 39% | 1010.3 hPa | 0 mm | - | - | - |
| 1777792832 | 27.78° C | 45% | 1010.3 hPa | 0 mm | - | - | - |
| 1777792232 | 27.78° C | 48% | 1010.4 hPa | 0 mm | - | - | - |
| 1777753233 | 15° C | 85% | 1014.2 hPa | 0 mm | - | - | - |
| 1777752032 | 15° C | 84% | 1014.6 hPa | 0 mm | - | - | - |
| 1777751432 | 15° C | 82% | 1014.5 hPa | 0 mm | - | - | - |
| 1777750832 | 15.56° C | 81% | 1014.5 hPa | 0 mm | - | - | - |
| 1777750232 | 17.22° C | 77% | 1014.9 hPa | 0 mm | - | - | - |
| 1777749033 | 18.33° C | 73% | 1013.1 hPa | 0 mm | - | - | - |
| 1777748432 | 18.33° C | 69% | 1012.9 hPa | 0 mm | - | - | - |
| 1777747833 | 18.89° C | 67% | 1013.1 hPa | 0 mm | - | - | - |
| 1777747232 | 19.44° C | 65% | 1013.1 hPa | 0 mm | - | - | - |
| 1777746033 | 20° C | 63% | 1012.9 hPa | 0 mm | - | - | - |
| 1777744832 | 19.44° C | 62% | 1012.5 hPa | 0 mm | - | - | - |
* Rain latest hour (hover to see other rain measurements)
** Current wind speed in m/s (hover to see current wind gust speed)